createdAt,value
2017-09-14T00:00:07.294Z,11.30
2017-09-14T00:02:34.706Z,11.30
2017-09-14T00:05:02.135Z,11.20
2017-09-14T00:07:29.550Z,11.20
2017-09-14T00:09:57.734Z,11.30
2017-09-14T00:12:25.146Z,11.30
2017-09-14T00:14:52.569Z,11.30
2017-09-14T00:17:19.983Z,11.30
2017-09-14T00:19:47.399Z,11.30
2017-09-14T00:22:14.816Z,11.30
2017-09-14T00:24:42.998Z,11.30
2017-09-14T00:27:10.407Z,11.30
2017-09-14T00:29:38.634Z,11.30
2017-09-14T00:32:06.046Z,11.40
2017-09-14T00:34:34.381Z,11.40
2017-09-14T00:37:01.802Z,11.30
2017-09-14T00:39:29.991Z,11.40
2017-09-14T00:41:57.407Z,11.40
2017-09-14T00:44:24.879Z,11.40
2017-09-14T00:46:53.051Z,11.40
2017-09-14T00:49:21.244Z,11.40
2017-09-14T00:51:49.552Z,11.40
2017-09-14T00:54:17.211Z,11.40
2017-09-14T00:56:44.696Z,11.40
2017-09-14T00:59:12.109Z,11.40
2017-09-14T01:01:40.332Z,11.40
2017-09-14T01:04:07.750Z,11.40
2017-09-14T01:06:35.174Z,11.30
2017-09-14T01:09:04.190Z,11.30
2017-09-14T01:11:31.610Z,11.30
2017-09-14T01:14:17.307Z,11.30
2017-09-14T01:16:45.490Z,11.30
2017-09-14T01:19:14.239Z,11.30
2017-09-14T01:21:41.670Z,11.30
2017-09-14T01:24:09.089Z,11.40
2017-09-14T01:26:37.272Z,11.30
2017-09-14T01:29:04.688Z,11.30
2017-09-14T01:31:32.103Z,11.20
2017-09-14T01:34:00.462Z,11.20
2017-09-14T01:36:27.887Z,11.20
2017-09-14T01:38:55.295Z,11.20
2017-09-14T01:41:22.719Z,11.20
2017-09-14T01:43:50.895Z,11.20
2017-09-14T01:46:19.078Z,11.30
2017-09-14T01:48:46.490Z,11.20
2017-09-14T01:51:13.910Z,11.20
2017-09-14T01:53:41.331Z,11.20
2017-09-14T01:56:10.030Z,11.10
2017-09-14T01:58:38.254Z,11.00
2017-09-14T02:01:05.667Z,11.10
2017-09-14T02:03:33.091Z,11.00
2017-09-14T02:06:01.522Z,11.10
2017-09-14T02:08:28.922Z,11.00
2017-09-14T02:10:56.348Z,11.00
2017-09-14T02:13:23.761Z,11.00
2017-09-14T02:15:52.070Z,10.90
2017-09-14T02:18:19.478Z,10.90
2017-09-14T02:20:47.665Z,10.90
2017-09-14T02:23:15.840Z,11.00
2017-09-14T02:25:43.815Z,10.90
2017-09-14T02:28:11.223Z,10.90
2017-09-14T02:30:38.641Z,10.90
2017-09-14T02:33:06.053Z,10.80
2017-09-14T02:35:34.362Z,10.80
2017-09-14T02:38:01.771Z,10.80
2017-09-14T02:40:29.207Z,10.80
2017-09-14T02:42:56.606Z,10.80
2017-09-14T02:45:24.815Z,10.80
2017-09-14T02:47:52.230Z,10.70
2017-09-14T02:50:20.413Z,10.80
2017-09-14T02:52:48.598Z,10.80
2017-09-14T02:55:16.013Z,10.80
2017-09-14T02:57:43.443Z,10.80
2017-09-14T03:00:10.851Z,10.80
2017-09-14T03:02:39.043Z,10.80
2017-09-14T03:05:06.456Z,10.80
2017-09-14T03:07:33.877Z,10.80
2017-09-14T03:10:01.286Z,10.80
2017-09-14T03:12:28.710Z,10.80
2017-09-14T03:14:56.162Z,10.80
2017-09-14T03:17:23.551Z,10.80
2017-09-14T03:19:50.958Z,10.80
2017-09-14T03:22:18.386Z,10.70
2017-09-14T03:24:46.570Z,10.80
2017-09-14T03:27:13.991Z,10.70
2017-09-14T03:29:41.411Z,10.70
2017-09-14T03:32:08.832Z,10.70
2017-09-14T03:34:36.245Z,10.70
2017-09-14T03:37:03.680Z,10.70
2017-09-14T03:39:31.099Z,10.70
2017-09-14T03:41:58.510Z,10.70
2017-09-14T03:44:25.933Z,10.70
2017-09-14T03:46:53.346Z,10.70
2017-09-14T03:49:21.536Z,10.70
2017-09-14T03:51:49.710Z,10.80
2017-09-14T03:54:17.894Z,10.80
2017-09-14T03:56:45.306Z,10.70
2017-09-14T03:59:12.729Z,10.80
2017-09-14T04:01:40.142Z,10.80
2017-09-14T04:04:08.863Z,10.80
2017-09-14T04:06:36.271Z,10.80
2017-09-14T04:09:03.698Z,10.70
2017-09-14T04:11:31.111Z,10.70
2017-09-14T04:13:58.532Z,10.60
2017-09-14T04:16:26.872Z,10.60
2017-09-14T04:18:54.957Z,10.50
2017-09-14T04:21:22.370Z,10.50
2017-09-14T04:23:50.541Z,10.40
2017-09-14T04:26:18.730Z,10.40
2017-09-14T04:28:46.139Z,10.30
2017-09-14T04:31:13.561Z,10.40
2017-09-14T04:33:40.971Z,10.50
2017-09-14T04:36:09.162Z,10.50
2017-09-14T04:38:36.595Z,10.40
2017-09-14T04:41:04.376Z,10.40
2017-09-14T04:43:32.555Z,10.30
2017-09-14T04:45:59.993Z,10.20
2017-09-14T04:48:27.391Z,10.30
2017-09-14T04:50:54.812Z,10.30
2017-09-14T04:53:22.218Z,10.40
2017-09-14T04:55:49.646Z,10.40
2017-09-14T04:58:17.981Z,10.40
2017-09-14T05:00:45.407Z,10.40
2017-09-14T05:03:12.813Z,10.40
2017-09-14T05:05:41.003Z,10.40
2017-09-14T05:08:08.426Z,10.30
2017-09-14T05:10:35.851Z,10.30
2017-09-14T05:13:03.266Z,10.40
2017-09-14T05:15:30.682Z,10.40
2017-09-14T05:17:58.108Z,10.40
2017-09-14T05:20:25.520Z,10.20
2017-09-14T05:22:53.725Z,10.20
2017-09-14T05:25:21.130Z,10.20
2017-09-14T05:27:48.560Z,10.20
2017-09-14T05:30:15.975Z,10.30
2017-09-14T05:32:44.156Z,10.20
2017-09-14T05:35:11.576Z,10.20
2017-09-14T05:37:38.999Z,10.20
2017-09-14T05:40:06.410Z,10.10
2017-09-14T05:42:34.588Z,10.20
2017-09-14T05:45:02.772Z,10.20
2017-09-14T05:47:30.854Z,10.20
2017-09-14T05:49:58.266Z,10.20
2017-09-14T05:52:25.693Z,10.20
2017-09-14T05:54:53.138Z,10.20
2017-09-14T05:57:20.538Z,10.30
2017-09-14T05:59:47.951Z,10.30
2017-09-14T06:02:15.371Z,10.30
2017-09-14T06:04:44.062Z,10.30
2017-09-14T06:07:12.391Z,10.30
2017-09-14T06:09:40.130Z,10.30
2017-09-14T06:12:07.562Z,10.30
2017-09-14T06:14:34.984Z,10.30
2017-09-14T06:17:02.395Z,10.40
2017-09-14T06:19:29.818Z,10.40
2017-09-14T06:21:58.000Z,10.40
2017-09-14T06:24:26.174Z,10.40
2017-09-14T06:26:54.352Z,10.40
2017-09-14T06:29:21.769Z,10.40
2017-09-14T06:31:49.179Z,10.40
2017-09-14T06:34:16.599Z,10.30
2017-09-14T06:36:44.015Z,10.30
2017-09-14T06:39:11.431Z,10.30
2017-09-14T06:41:38.843Z,10.30
2017-09-14T06:44:06.327Z,10.40
2017-09-14T06:46:34.498Z,10.60
2017-09-14T06:49:03.947Z,10.60
2017-09-14T06:51:31.371Z,10.60
2017-09-14T06:53:59.550Z,10.60
2017-09-14T06:56:26.963Z,10.60
2017-09-14T06:58:54.385Z,10.60
2017-09-14T07:01:21.798Z,10.50
2017-09-14T07:03:49.218Z,10.50
2017-09-14T07:06:16.637Z,10.40
2017-09-14T07:08:44.057Z,10.50
2017-09-14T07:11:12.184Z,10.50
2017-09-14T07:13:39.598Z,10.50
2017-09-14T07:16:07.790Z,10.30
2017-09-14T07:18:35.969Z,10.40
2017-09-14T07:21:03.384Z,10.40
2017-09-14T07:23:30.804Z,10.50
2017-09-14T07:25:59.125Z,10.60
2017-09-14T07:28:26.546Z,10.50
2017-09-14T07:30:53.966Z,10.50
2017-09-14T07:33:21.387Z,10.50
2017-09-14T07:35:49.155Z,10.50
2017-09-14T07:38:16.577Z,10.60
2017-09-14T07:40:43.999Z,10.60
2017-09-14T07:43:11.414Z,10.60
2017-09-14T07:45:38.833Z,10.70
2017-09-14T07:48:06.251Z,10.70
2017-09-14T07:50:34.438Z,10.50
2017-09-14T07:53:01.850Z,10.50
2017-09-14T07:55:29.274Z,10.50
2017-09-14T07:57:56.693Z,10.50
2017-09-14T08:00:24.873Z,10.40
2017-09-14T08:02:53.874Z,10.40
2017-09-14T08:05:21.296Z,10.30
2017-09-14T08:07:48.716Z,10.40
2017-09-14T08:10:16.129Z,10.30
2017-09-14T08:12:45.175Z,10.40
2017-09-14T08:15:12.592Z,10.40
2017-09-14T08:17:40.781Z,10.30
2017-09-14T08:20:08.197Z,10.40
2017-09-14T08:22:35.913Z,10.30
2017-09-14T08:25:03.318Z,10.30
2017-09-14T08:27:30.734Z,10.30
2017-09-14T08:29:58.151Z,10.30
2017-09-14T08:32:26.334Z,10.30
2017-09-14T08:34:53.757Z,10.30
2017-09-14T08:37:21.222Z,10.30
2017-09-14T08:39:49.413Z,10.30
2017-09-14T08:42:17.603Z,10.30
2017-09-14T08:44:46.155Z,10.30
2017-09-14T08:47:14.352Z,10.30
2017-09-14T08:49:42.533Z,10.30
2017-09-14T08:52:09.947Z,10.40
2017-09-14T08:54:38.563Z,10.40
2017-09-14T08:57:06.785Z,10.40
2017-09-14T08:59:34.525Z,10.40
2017-09-14T09:02:01.935Z,10.40
2017-09-14T09:04:29.364Z,10.40
2017-09-14T09:06:56.779Z,10.30
2017-09-14T09:09:24.210Z,10.30
2017-09-14T09:11:51.607Z,10.30
2017-09-14T09:14:19.033Z,10.50
2017-09-14T09:16:47.351Z,10.60
2017-09-14T09:19:14.772Z,10.70
2017-09-14T09:21:42.189Z,10.70
2017-09-14T09:24:09.607Z,10.50
2017-09-14T09:26:37.018Z,10.30
2017-09-14T09:29:04.426Z,10.20
2017-09-14T09:31:31.847Z,10.10
2017-09-14T09:33:59.269Z,10.20
2017-09-14T09:36:26.685Z,10.20
2017-09-14T09:38:54.107Z,10.20
2017-09-14T09:41:22.291Z,10.20
2017-09-14T09:43:49.721Z,10.20
2017-09-14T09:46:17.125Z,10.20
2017-09-14T09:48:44.546Z,10.30
2017-09-14T09:51:12.730Z,10.30
2017-09-14T09:53:41.526Z,10.30
2017-09-14T09:56:08.940Z,10.30
2017-09-14T09:58:36.361Z,10.30
2017-09-14T10:01:03.779Z,10.40
2017-09-14T10:03:31.956Z,10.40
2017-09-14T10:06:00.143Z,10.50
2017-09-14T10:08:27.559Z,10.50
2017-09-14T10:10:55.742Z,10.70
2017-09-14T10:13:23.154Z,11.20
2017-09-14T10:15:50.574Z,11.70
2017-09-14T10:18:19.323Z,12.40
2017-09-14T10:20:46.755Z,12.40
2017-09-14T10:23:14.170Z,12.80
2017-09-14T10:25:42.357Z,14.20
2017-09-14T10:28:10.617Z,14.20
2017-09-14T10:30:38.791Z,15.50
2017-09-14T10:33:07.676Z,16.00
2017-09-14T10:35:35.859Z,16.30
2017-09-14T10:38:04.287Z,16.70
2017-09-14T10:40:31.682Z,16.60
2017-09-14T10:42:59.106Z,16.70
2017-09-14T10:45:26.537Z,16.60
2017-09-14T10:47:53.946Z,16.60
2017-09-14T10:50:22.199Z,17.50
2017-09-14T10:52:49.624Z,17.50
2017-09-14T10:55:17.051Z,17.60
2017-09-14T10:57:45.246Z,17.00
2017-09-14T11:00:12.665Z,17.00
2017-09-14T11:02:40.084Z,17.20
2017-09-14T11:05:07.507Z,17.40
2017-09-14T11:07:35.601Z,17.70
2017-09-14T11:10:03.027Z,17.20
2017-09-14T11:12:31.203Z,16.30
2017-09-14T11:15:00.382Z,16.60
2017-09-14T11:17:29.122Z,16.60
2017-09-14T11:19:56.546Z,16.50
2017-09-14T11:22:23.967Z,16.00
2017-09-14T11:24:51.383Z,16.10
2017-09-14T11:27:18.806Z,16.30
2017-09-14T11:29:47.001Z,16.30
2017-09-14T11:32:14.448Z,16.30
2017-09-14T11:34:41.915Z,16.70
2017-09-14T11:37:09.336Z,16.60
2017-09-14T11:39:37.522Z,16.80
2017-09-14T11:42:05.717Z,16.60
2017-09-14T11:44:33.375Z,16.50
2017-09-14T11:47:01.535Z,16.10
2017-09-14T11:49:29.727Z,15.90
2017-09-14T11:51:57.134Z,15.90
2017-09-14T11:54:25.313Z,16.00
2017-09-14T11:56:52.730Z,16.70
2017-09-14T11:59:20.153Z,16.80
2017-09-14T12:01:47.586Z,16.70
2017-09-14T12:04:16.142Z,16.70
2017-09-14T12:06:43.551Z,16.90
2017-09-14T12:09:11.731Z,16.30
2017-09-14T12:11:39.602Z,16.30
2017-09-14T12:14:07.926Z,16.20
2017-09-14T12:16:35.351Z,16.10
2017-09-14T12:19:03.669Z,15.70
2017-09-14T12:21:31.078Z,15.30
2017-09-14T12:23:58.495Z,15.10
2017-09-14T12:26:26.677Z,14.70
2017-09-14T12:28:54.858Z,14.50
2017-09-14T12:31:23.689Z,14.50
2017-09-14T12:33:51.082Z,14.50
2017-09-14T12:36:18.508Z,14.30
2017-09-14T12:38:45.919Z,14.10
2017-09-14T12:41:14.113Z,14.00
2017-09-14T12:43:41.523Z,14.00
2017-09-14T12:46:09.593Z,13.90
2017-09-14T12:48:37.000Z,13.80
2017-09-14T12:51:04.414Z,13.70
2017-09-14T12:53:32.622Z,13.40
2017-09-14T12:56:00.015Z,13.40
2017-09-14T12:58:27.439Z,13.30
2017-09-14T13:00:54.850Z,13.20
2017-09-14T13:03:23.615Z,13.30
2017-09-14T13:05:51.042Z,13.30
2017-09-14T13:08:18.458Z,13.20
2017-09-14T13:10:46.636Z,13.40
2017-09-14T13:13:14.819Z,13.30
2017-09-14T13:15:43.017Z,13.30
2017-09-14T13:18:10.439Z,13.30
2017-09-14T13:20:38.618Z,13.50
2017-09-14T13:23:06.802Z,13.50
2017-09-14T13:25:34.215Z,13.50
2017-09-14T13:28:01.643Z,13.40
2017-09-14T13:30:29.063Z,13.40
2017-09-14T13:32:57.247Z,13.20
2017-09-14T13:35:24.665Z,13.10
2017-09-14T13:37:52.995Z,13.00
2017-09-14T13:40:20.410Z,12.50
2017-09-14T13:42:48.615Z,11.30
2017-09-14T13:45:16.031Z,11.30
2017-09-14T13:47:43.451Z,10.80
2017-09-14T13:50:11.867Z,10.60
2017-09-14T13:52:39.278Z,10.60
2017-09-14T13:55:06.700Z,10.60
2017-09-14T13:57:34.882Z,11.20
2017-09-14T14:00:02.302Z,11.20
2017-09-14T14:02:30.527Z,11.50
2017-09-14T14:04:58.451Z,11.50
2017-09-14T14:07:25.863Z,11.50
2017-09-14T14:09:53.278Z,12.50
2017-09-14T14:12:21.453Z,13.30
2017-09-14T14:14:49.646Z,13.50
2017-09-14T14:17:17.068Z,13.50
2017-09-14T14:19:45.373Z,13.70
2017-09-14T14:22:12.794Z,13.70
2017-09-14T14:24:40.212Z,14.00
2017-09-14T14:27:07.641Z,13.90
2017-09-14T14:29:35.820Z,14.20
2017-09-14T14:32:03.235Z,14.20
2017-09-14T14:34:30.657Z,14.20
2017-09-14T14:36:58.074Z,14.30
2017-09-14T14:39:26.490Z,14.60
2017-09-14T14:41:53.910Z,14.60
2017-09-14T14:44:22.990Z,13.90
2017-09-14T14:46:50.413Z,13.80
2017-09-14T14:49:17.830Z,14.10
2017-09-14T14:51:45.256Z,14.10
2017-09-14T14:54:12.675Z,14.30
2017-09-14T14:56:40.097Z,14.80
2017-09-14T14:59:08.291Z,14.70
2017-09-14T15:01:35.701Z,14.60
2017-09-14T15:04:03.124Z,14.70
2017-09-14T15:06:30.537Z,15.20
2017-09-14T15:08:57.955Z,15.60
2017-09-14T15:11:25.379Z,15.70
2017-09-14T15:13:52.795Z,15.90
2017-09-14T15:16:20.980Z,15.80
2017-09-14T15:18:49.162Z,15.70
2017-09-14T15:21:16.640Z,15.70
2017-09-14T15:23:44.050Z,15.40
2017-09-14T15:26:12.239Z,14.80
2017-09-14T15:28:39.661Z,14.70
2017-09-14T15:31:07.079Z,14.30
2017-09-14T15:33:34.504Z,14.00
2017-09-14T15:36:02.686Z,13.10
2017-09-14T15:38:51.091Z,12.90
2017-09-14T15:41:24.150Z,12.90
2017-09-14T15:43:57.239Z,12.80
2017-09-14T15:46:24.655Z,12.70
2017-09-14T15:48:58.570Z,12.60
2017-09-14T15:51:32.470Z,12.60
2017-09-14T15:54:00.658Z,12.70
2017-09-14T15:56:28.082Z,12.60
2017-09-14T15:58:55.514Z,12.80
2017-09-14T16:01:22.925Z,12.70
2017-09-14T16:03:50.352Z,12.70
2017-09-14T16:06:17.764Z,12.80
2017-09-14T16:08:45.188Z,12.80
2017-09-14T16:11:13.920Z,12.60
2017-09-14T16:13:41.347Z,12.60
2017-09-14T16:16:08.763Z,12.60
2017-09-14T16:18:36.184Z,12.40
2017-09-14T16:21:03.611Z,12.30
2017-09-14T16:23:31.030Z,12.10
2017-09-14T16:25:58.443Z,12.20
2017-09-14T16:28:25.888Z,12.20
2017-09-14T16:30:53.295Z,12.10
2017-09-14T16:33:20.730Z,12.10
2017-09-14T16:35:48.138Z,12.00
2017-09-14T16:38:15.559Z,11.80
2017-09-14T16:40:42.979Z,11.50
2017-09-14T16:43:10.418Z,11.20
2017-09-14T16:45:37.830Z,11.00
2017-09-14T16:48:05.637Z,10.80
2017-09-14T16:50:33.807Z,10.70
2017-09-14T16:53:01.222Z,10.60
2017-09-14T16:55:28.638Z,10.60
2017-09-14T16:57:56.047Z,10.40
2017-09-14T17:00:23.834Z,10.20
2017-09-14T17:02:52.178Z,10.10
2017-09-14T17:05:19.591Z,10.00
2017-09-14T17:07:46.999Z,9.90
2017-09-14T17:10:14.418Z,9.80
2017-09-14T17:12:41.827Z,9.70
2017-09-14T17:15:10.856Z,9.60
2017-09-14T17:17:38.267Z,9.50
2017-09-14T17:20:06.458Z,9.50
2017-09-14T17:22:34.638Z,9.50
2017-09-14T17:25:02.053Z,9.50
2017-09-14T17:27:29.457Z,9.50
2017-09-14T17:29:56.876Z,9.50
2017-09-14T17:32:24.280Z,9.40
2017-09-14T17:34:51.701Z,9.40
2017-09-14T17:37:19.875Z,9.30
2017-09-14T17:39:48.065Z,9.30
2017-09-14T17:42:16.159Z,9.30
2017-09-14T17:44:43.570Z,9.30
2017-09-14T17:47:11.806Z,9.20
2017-09-14T17:49:39.231Z,9.20
2017-09-14T17:52:07.918Z,9.20
2017-09-14T17:54:36.092Z,9.00
2017-09-14T17:57:03.494Z,9.00
2017-09-14T17:59:30.918Z,9.10
2017-09-14T18:01:58.323Z,9.10
2017-09-14T18:04:25.745Z,9.10
2017-09-14T18:06:53.162Z,9.00
2017-09-14T18:09:21.339Z,9.10
2017-09-14T18:11:48.762Z,9.00
2017-09-14T18:14:16.220Z,9.00
2017-09-14T18:16:43.614Z,9.00
2017-09-14T18:19:11.022Z,9.00
2017-09-14T18:21:38.442Z,8.90
2017-09-14T18:24:06.672Z,8.90
2017-09-14T18:26:34.846Z,8.90
2017-09-14T18:29:03.027Z,8.80
2017-09-14T18:31:31.204Z,8.80
2017-09-14T18:33:59.386Z,8.90
2017-09-14T18:36:26.826Z,8.90
2017-09-14T18:38:54.238Z,8.90
2017-09-14T18:41:21.650Z,8.90
2017-09-14T18:43:50.525Z,8.80
2017-09-14T18:46:17.938Z,8.80
2017-09-14T18:48:45.361Z,8.80
2017-09-14T18:51:12.765Z,8.80
2017-09-14T18:53:40.174Z,8.80
2017-09-14T18:56:07.846Z,8.80
2017-09-14T18:58:35.263Z,8.80
2017-09-14T19:01:02.670Z,8.80
2017-09-14T19:03:30.516Z,8.80
2017-09-14T19:05:57.920Z,8.80
2017-09-14T19:08:25.352Z,8.80
2017-09-14T19:10:52.762Z,8.80
2017-09-14T19:13:21.710Z,8.80
2017-09-14T19:15:49.151Z,8.80
2017-09-14T19:18:16.550Z,8.80
2017-09-14T19:20:43.970Z,8.80
2017-09-14T19:23:11.994Z,8.90
2017-09-14T19:25:40.173Z,8.90
2017-09-14T19:28:08.365Z,8.90
2017-09-14T19:30:35.778Z,8.90
2017-09-14T19:33:03.200Z,8.90
2017-09-14T19:35:30.618Z,8.90
2017-09-14T19:37:58.793Z,9.00
2017-09-14T19:40:26.976Z,9.00
2017-09-14T19:42:54.370Z,8.90
2017-09-14T19:45:21.813Z,9.00
2017-09-14T19:47:49.214Z,9.00
2017-09-14T19:50:16.631Z,9.00
2017-09-14T19:52:44.056Z,9.00
2017-09-14T19:55:11.464Z,9.00
2017-09-14T19:57:38.878Z,8.90
2017-09-14T20:00:06.287Z,8.90
2017-09-14T20:02:33.712Z,8.90
2017-09-14T20:05:01.121Z,9.00
2017-09-14T20:07:29.304Z,9.00
2017-09-14T20:09:56.709Z,9.00
2017-09-14T20:12:24.957Z,9.00
2017-09-14T20:14:52.378Z,9.00
2017-09-14T20:17:21.449Z,9.10
2017-09-14T20:19:49.657Z,9.00
2017-09-14T20:22:17.840Z,9.10
2017-09-14T20:24:45.767Z,9.00
2017-09-14T20:27:13.166Z,9.00
2017-09-14T20:29:40.588Z,9.10
2017-09-14T20:32:08.001Z,9.10
2017-09-14T20:34:35.830Z,9.10
2017-09-14T20:37:04.800Z,9.10
2017-09-14T20:39:32.210Z,9.10
2017-09-14T20:41:59.615Z,9.20
2017-09-14T20:44:28.046Z,9.20
2017-09-14T20:46:55.466Z,9.10
2017-09-14T20:49:23.655Z,9.20
2017-09-14T20:51:51.076Z,9.20
2017-09-14T20:54:18.490Z,9.20
2017-09-14T20:56:45.894Z,9.20
2017-09-14T20:59:13.299Z,9.20
2017-09-14T21:01:40.721Z,9.10
2017-09-14T21:04:08.898Z,9.20
2017-09-14T21:06:37.078Z,9.20
2017-09-14T21:09:06.165Z,9.20
2017-09-14T21:11:34.351Z,9.20
2017-09-14T21:14:01.763Z,9.20
2017-09-14T21:16:29.179Z,9.30
2017-09-14T21:18:56.596Z,9.30
2017-09-14T21:21:24.003Z,9.30
2017-09-14T21:23:51.415Z,9.30
2017-09-14T21:26:19.598Z,9.30
2017-09-14T21:28:47.009Z,9.30
2017-09-14T21:31:14.468Z,9.30
2017-09-14T21:33:41.869Z,9.30
2017-09-14T21:36:09.282Z,9.30
2017-09-14T21:38:36.705Z,9.40
2017-09-14T21:41:04.110Z,9.40
2017-09-14T21:43:33.056Z,9.40
2017-09-14T21:46:00.706Z,9.40
2017-09-14T21:48:28.127Z,9.40
2017-09-14T21:50:56.312Z,9.50
2017-09-14T21:53:24.496Z,9.50
2017-09-14T21:55:52.663Z,9.50
2017-09-14T21:58:21.391Z,9.60
2017-09-14T22:00:48.801Z,9.50
2017-09-14T22:03:16.981Z,9.60
2017-09-14T22:05:44.382Z,9.60
2017-09-14T22:08:11.807Z,9.70
2017-09-14T22:10:39.212Z,9.60
2017-09-14T22:13:06.628Z,9.60
2017-09-14T22:15:34.039Z,9.60
2017-09-14T22:18:01.478Z,9.60
2017-09-14T22:20:28.897Z,9.60
2017-09-14T22:22:56.305Z,9.60
2017-09-14T22:25:23.718Z,9.60
2017-09-14T22:27:51.134Z,9.50
2017-09-14T22:30:19.326Z,9.50
2017-09-14T22:32:46.743Z,9.50
2017-09-14T22:35:14.158Z,9.50
2017-09-14T22:37:41.567Z,9.50
2017-09-14T22:40:09.759Z,9.60
2017-09-14T22:42:37.930Z,9.60
2017-09-14T22:45:06.121Z,9.60
2017-09-14T22:47:33.529Z,9.60
2017-09-14T22:50:00.945Z,9.60
2017-09-14T22:52:29.182Z,9.60
2017-09-14T22:54:58.023Z,9.60
2017-09-14T22:57:25.427Z,9.50
2017-09-14T22:59:54.460Z,9.60
2017-09-14T23:02:21.866Z,9.60
2017-09-14T23:04:50.920Z,9.50
2017-09-14T23:07:18.335Z,9.50
2017-09-14T23:09:46.519Z,9.50
2017-09-14T23:12:13.940Z,9.50
2017-09-14T23:14:41.363Z,9.60
2017-09-14T23:17:08.781Z,9.60
2017-09-14T23:19:36.191Z,9.60
2017-09-14T23:22:04.234Z,9.60
2017-09-14T23:24:31.654Z,9.60
2017-09-14T23:27:00.626Z,9.70
2017-09-14T23:29:29.204Z,9.70
2017-09-14T23:31:56.617Z,9.60
2017-09-14T23:34:24.023Z,9.60
2017-09-14T23:36:52.266Z,9.60
2017-09-14T23:39:19.682Z,9.60
2017-09-14T23:41:48.089Z,9.60
2017-09-14T23:44:15.537Z,9.60
2017-09-14T23:46:44.370Z,9.60
2017-09-14T23:49:11.792Z,9.60
2017-09-14T23:51:39.202Z,9.60
2017-09-14T23:54:07.325Z,9.60
2017-09-14T23:56:34.740Z,9.70
2017-09-14T23:59:02.951Z,9.70
